createdAt,value
2022-12-23T00:19:30.248Z,21.60
2022-12-23T00:21:58.753Z,21.50
2022-12-23T00:24:27.510Z,21.50
2022-12-23T00:26:56.056Z,21.80
2022-12-23T00:29:24.681Z,21.40
2022-12-23T00:31:53.228Z,21.70
2022-12-23T00:34:21.775Z,21.70
2022-12-23T00:36:51.537Z,21.10
2022-12-23T00:39:37.460Z,21.70
2022-12-23T00:42:23.305Z,21.60
2022-12-23T00:44:51.711Z,21.60
2022-12-23T00:47:37.791Z,21.90
2022-12-23T00:50:07.599Z,21.70
2022-12-23T00:52:37.528Z,21.60
2022-12-23T00:55:07.547Z,21.80
2022-12-23T00:57:36.304Z,21.60
2022-12-23T01:47:16.180Z,21.40
2022-12-23T01:49:44.799Z,21.50
2022-12-23T01:52:14.512Z,21.40
2022-12-23T01:54:44.063Z,21.50
2022-12-23T01:57:13.286Z,21.40
2022-12-23T02:00:00.822Z,21.40
2022-12-23T02:46:47.750Z,21.30
2022-12-23T02:49:22.942Z,21.40
2022-12-23T02:51:55.964Z,21.40
2022-12-23T02:54:30.824Z,21.40
2022-12-23T02:57:02.138Z,21.40
2022-12-23T02:59:38.355Z,21.50
2022-12-23T03:02:08.238Z,21.40
2022-12-23T03:04:38.268Z,21.30
2022-12-23T03:07:09.697Z,21.40
2022-12-23T03:09:52.638Z,21.40
2022-12-23T03:12:33.979Z,21.40
2022-12-23T03:15:14.818Z,21.40
2022-12-23T03:17:59.731Z,21.40
2022-12-23T03:20:35.768Z,21.40
2022-12-23T03:23:14.208Z,21.40
2022-12-23T03:25:49.088Z,21.40
2022-12-23T03:28:22.686Z,21.40
2022-12-23T03:30:58.493Z,21.40
2022-12-23T03:33:32.251Z,21.30
2022-12-23T03:36:06.123Z,21.50
2022-12-23T03:38:36.762Z,21.40
2022-12-23T03:41:10.404Z,21.50
2022-12-23T03:43:50.401Z,21.40
2022-12-23T03:49:01.870Z,21.40
2022-12-23T03:51:39.546Z,21.50
2022-12-23T03:54:14.183Z,21.40
2022-12-23T03:56:54.976Z,21.40
2022-12-23T03:59:28.102Z,21.50
2022-12-23T04:02:07.120Z,21.50
2022-12-23T04:04:54.464Z,21.40
2022-12-23T04:07:28.796Z,21.40
2022-12-23T04:09:58.675Z,21.40
2022-12-23T04:12:29.346Z,21.40
2022-12-23T04:14:58.124Z,21.30
2022-12-23T04:17:26.538Z,21.30
2022-12-23T04:22:26.001Z,21.30
2022-12-23T04:24:54.404Z,21.40
2022-12-23T04:27:22.753Z,21.40
2022-12-23T04:29:51.090Z,21.30
2022-12-23T04:32:19.704Z,21.40
2022-12-23T04:37:18.666Z,21.40
2022-12-23T04:39:47.115Z,21.40
2022-12-23T04:42:15.607Z,21.50
2022-12-23T04:44:44.207Z,21.40
2022-12-23T05:27:12.947Z,21.30
2022-12-23T05:29:41.276Z,21.30
2022-12-23T05:32:09.897Z,21.30
2022-12-23T05:34:38.287Z,21.20
2022-12-23T05:37:07.343Z,21.30
2022-12-23T05:39:35.735Z,21.20
2022-12-23T05:42:06.261Z,21.30
2022-12-23T05:44:35.162Z,21.30
2022-12-23T05:47:03.746Z,21.30
2022-12-23T05:49:32.363Z,21.40
2022-12-23T05:52:01.097Z,21.30
2022-12-23T05:54:29.752Z,21.30
2022-12-23T05:56:58.019Z,21.30
2022-12-23T05:59:31.244Z,21.30
2022-12-23T06:02:00.503Z,21.30
2022-12-23T06:04:29.216Z,21.30
2022-12-23T06:06:58.145Z,21.30
2022-12-23T06:09:26.473Z,21.30
2022-12-23T06:11:54.821Z,21.30
2022-12-23T06:14:28.596Z,21.30
2022-12-23T06:16:59.312Z,21.30
2022-12-23T06:19:28.160Z,21.20
2022-12-23T06:21:56.435Z,21.20
2022-12-23T06:24:24.716Z,21.30
2022-12-23T06:26:56.970Z,21.30
2022-12-23T06:29:26.187Z,21.20
2022-12-23T06:31:54.683Z,21.30
2022-12-23T06:34:24.432Z,21.20
2022-12-23T06:36:52.803Z,21.20
2022-12-23T06:39:21.129Z,21.40
2022-12-23T06:41:50.111Z,21.20
2022-12-23T06:44:19.328Z,21.20
2022-12-23T06:46:47.931Z,21.20
2022-12-23T06:49:16.453Z,21.20
2022-12-23T06:51:46.145Z,21.30
2022-12-23T06:54:14.777Z,21.30
2022-12-23T06:56:43.178Z,21.30
2022-12-23T06:59:11.506Z,21.40
2022-12-23T07:01:40.705Z,21.30
2022-12-23T07:04:10.328Z,21.40
2022-12-23T07:06:39.506Z,21.60
2022-12-23T07:09:09.352Z,21.30
2022-12-23T07:11:37.904Z,21.20
2022-12-23T07:14:06.264Z,21.30
2022-12-23T07:16:34.615Z,21.30
2022-12-23T07:19:03.348Z,21.20
2022-12-23T07:21:31.955Z,21.20
2022-12-23T07:24:00.305Z,21.20
2022-12-23T07:26:30.056Z,21.20
2022-12-23T07:28:58.335Z,21.20
2022-12-23T07:31:26.872Z,21.20
2022-12-23T07:33:55.243Z,21.20
2022-12-23T07:36:23.589Z,21.20
2022-12-23T07:38:52.330Z,21.20
2022-12-23T07:41:20.838Z,21.20
2022-12-23T07:43:50.525Z,21.20
2022-12-23T07:46:18.915Z,21.20
2022-12-23T07:48:47.590Z,21.20
2022-12-23T07:51:16.113Z,21.20
2022-12-23T07:53:44.521Z,21.30
2022-12-23T07:56:12.890Z,21.20
2022-12-23T07:58:41.161Z,21.20
2022-12-23T08:01:10.929Z,21.10
2022-12-23T08:03:39.418Z,21.20
2022-12-23T08:06:12.535Z,21.20
2022-12-23T08:08:42.447Z,21.30
2022-12-23T08:11:12.636Z,21.30
2022-12-23T08:13:43.577Z,21.30
2022-12-23T08:16:13.667Z,21.30
2022-12-23T08:23:46.972Z,21.10
2022-12-23T08:46:26.389Z,21.10
2022-12-23T08:48:55.279Z,21.30
2022-12-23T08:54:00.427Z,21.10
2022-12-23T08:56:33.354Z,21.20
2022-12-23T08:59:02.199Z,21.20
2022-12-23T09:01:35.063Z,21.20
2022-12-23T09:04:04.742Z,21.20
2022-12-23T09:06:36.251Z,21.10
2022-12-23T09:09:05.393Z,21.10
2022-12-23T09:11:34.733Z,21.20
2022-12-23T09:14:04.989Z,21.20
2022-12-23T09:16:34.734Z,21.20
2022-12-23T09:19:03.395Z,21.20
2022-12-23T09:21:32.078Z,21.30
2022-12-23T09:24:00.457Z,21.30
2022-12-23T09:26:31.497Z,21.20
2022-12-23T09:29:00.157Z,21.30
2022-12-23T09:31:34.304Z,21.20
2022-12-23T09:34:06.878Z,21.20
2022-12-23T09:36:35.299Z,21.20
2022-12-23T09:39:04.407Z,21.30
2022-12-23T09:41:48.505Z,21.20
2022-12-23T09:44:54.161Z,21.20
2022-12-23T09:47:26.286Z,21.20
2022-12-23T09:50:00.845Z,21.10
2022-12-23T09:52:41.644Z,21.20
2022-12-23T09:55:12.230Z,21.20
2022-12-23T09:57:52.007Z,21.20
2022-12-23T10:00:22.713Z,21.20
2022-12-23T10:03:12.637Z,21.10
2022-12-23T10:05:56.230Z,21.10
2022-12-23T10:08:32.871Z,21.10
2022-12-23T10:11:05.939Z,21.10
2022-12-23T10:13:40.355Z,21.10
2022-12-23T10:16:13.886Z,21.10
2022-12-23T10:18:51.361Z,21.20
2022-12-23T10:21:31.261Z,21.20
2022-12-23T10:24:06.313Z,21.10
2022-12-23T10:26:42.560Z,21.20
2022-12-23T10:29:19.610Z,21.20
2022-12-23T10:32:03.226Z,21.20
2022-12-23T10:34:44.673Z,21.20
2022-12-23T10:37:26.074Z,21.20
2022-12-23T10:40:10.952Z,21.20
2022-12-23T10:42:47.076Z,21.20
2022-12-23T10:45:32.374Z,21.10
2022-12-23T10:48:22.065Z,21.10
2022-12-23T10:51:01.158Z,21.20
2022-12-23T10:53:38.443Z,21.10
2022-12-23T10:56:08.459Z,21.10
2022-12-23T10:58:41.816Z,21.10
2022-12-23T11:01:18.977Z,21.10
2022-12-23T11:04:04.486Z,21.10
2022-12-23T11:06:37.739Z,21.20
2022-12-23T11:09:15.661Z,21.20
2022-12-23T11:12:02.395Z,21.10
2022-12-23T11:14:34.537Z,21.10
2022-12-23T11:17:03.283Z,21.10
2022-12-23T11:19:31.990Z,21.10
2022-12-23T11:22:02.811Z,21.10
2022-12-23T11:24:39.563Z,21.20
2022-12-23T11:27:17.072Z,21.10
2022-12-23T11:29:49.214Z,21.10
2022-12-23T11:32:23.600Z,21.10
2022-12-23T11:34:53.030Z,21.20
2022-12-23T11:37:35.751Z,21.10
2022-12-23T11:40:16.013Z,21.20
2022-12-23T11:42:46.126Z,21.30
2022-12-23T11:45:24.863Z,21.10
2022-12-23T11:47:54.084Z,21.10
2022-12-23T11:50:34.015Z,21.10
2022-12-23T12:26:55.392Z,21.00
2022-12-23T12:29:29.580Z,21.10
2022-12-23T12:32:01.008Z,21.10
2022-12-23T12:34:42.551Z,20.80
2022-12-23T12:37:23.719Z,21.10
2022-12-23T12:39:55.979Z,21.20
2022-12-23T12:42:33.824Z,21.10
2022-12-23T12:45:15.438Z,21.10
2022-12-23T12:47:55.190Z,21.20
2022-12-23T12:50:31.660Z,21.10
2022-12-23T12:53:10.509Z,21.20
2022-12-23T13:24:58.572Z,21.00
2022-12-23T13:27:35.257Z,21.10
2022-12-23T13:30:15.146Z,21.20
2022-12-23T13:33:06.857Z,21.10
2022-12-23T13:36:05.240Z,21.20
2022-12-23T13:39:00.829Z,21.00
2022-12-23T13:41:34.178Z,21.00
2022-12-23T13:44:05.516Z,21.00
2022-12-23T13:46:47.774Z,21.10
2022-12-23T13:49:30.759Z,21.00
2022-12-23T13:52:10.259Z,21.00
2022-12-23T13:54:52.654Z,21.00
2022-12-23T13:57:39.376Z,21.10
2022-12-23T14:00:27.344Z,21.10
2022-12-23T14:03:26.055Z,21.10
2022-12-23T14:05:55.095Z,21.10
2022-12-23T14:08:41.775Z,21.20
2022-12-23T14:11:19.701Z,21.10
2022-12-23T14:13:58.249Z,21.00
2022-12-23T14:16:51.781Z,21.10
2022-12-23T14:19:53.020Z,21.20
2022-12-23T14:22:49.413Z,21.10
2022-12-23T14:31:32.344Z,20.90
2022-12-23T14:34:07.314Z,21.00
2022-12-23T14:36:37.389Z,20.90
2022-12-23T14:39:32.717Z,21.00
2022-12-23T14:42:06.486Z,20.90
2022-12-23T14:44:51.630Z,21.00
2022-12-23T14:47:40.481Z,21.00
2022-12-23T14:50:39.598Z,21.10
2022-12-23T14:53:26.046Z,21.00
2022-12-23T14:56:13.048Z,21.10
2022-12-23T14:59:03.539Z,20.90
2022-12-23T15:01:39.014Z,21.00
2022-12-23T15:04:16.247Z,21.00
2022-12-23T15:06:48.409Z,21.10
2022-12-23T15:09:26.778Z,21.10
2022-12-23T15:11:56.886Z,21.10
2022-12-23T15:14:35.118Z,21.20
2022-12-23T15:17:17.567Z,21.20
2022-12-23T15:19:48.028Z,21.20
2022-12-23T15:22:22.706Z,21.10
2022-12-23T15:24:53.778Z,21.10
2022-12-23T15:27:27.788Z,21.10
2022-12-23T15:29:57.474Z,21.10
2022-12-23T15:32:27.817Z,21.00
2022-12-23T15:35:03.384Z,21.00
2022-12-23T15:37:33.081Z,21.00
2022-12-23T15:40:12.255Z,21.00
2022-12-23T15:42:49.744Z,21.00
2022-12-23T15:45:38.070Z,21.00
2022-12-23T15:48:22.866Z,21.10
2022-12-23T15:50:56.215Z,21.10
2022-12-23T15:56:11.288Z,21.00
2022-12-23T15:58:43.102Z,21.10
2022-12-23T16:01:16.768Z,21.00
2022-12-23T16:03:52.819Z,21.10
2022-12-23T16:06:25.286Z,21.00
2022-12-23T16:09:03.237Z,21.10
2022-12-23T16:11:51.980Z,20.90
2022-12-23T16:14:33.714Z,21.00
2022-12-23T16:17:13.285Z,21.00
2022-12-23T16:19:44.908Z,21.00
2022-12-23T16:22:26.360Z,21.20
2022-12-23T16:25:08.004Z,21.00
2022-12-23T16:27:40.859Z,21.00
2022-12-23T16:30:16.599Z,21.00
2022-12-23T16:32:50.995Z,21.00
2022-12-23T16:35:32.570Z,21.00
2022-12-23T16:38:15.478Z,21.00
2022-12-23T16:40:45.323Z,21.10
2022-12-23T16:43:15.818Z,21.00
2022-12-23T16:45:46.317Z,21.00
2022-12-23T16:48:22.160Z,21.00
2022-12-23T16:50:51.286Z,21.00
2022-12-23T16:53:19.693Z,21.10
2022-12-23T16:55:53.871Z,21.00
2022-12-23T16:58:28.356Z,21.00
2022-12-23T17:00:57.088Z,21.00
2022-12-23T17:03:25.861Z,20.90
2022-12-23T17:05:54.452Z,21.00
2022-12-23T17:08:22.792Z,21.00
2022-12-23T17:10:51.978Z,21.00
2022-12-23T17:13:20.623Z,21.00
2022-12-23T17:15:50.416Z,21.00
2022-12-23T17:18:19.557Z,21.00
2022-12-23T17:20:49.905Z,21.00
2022-12-23T17:23:28.088Z,21.00
2022-12-23T17:25:56.810Z,21.10
2022-12-23T17:28:27.152Z,21.00
2022-12-23T17:30:58.086Z,21.10
2022-12-23T17:33:31.025Z,21.10
2022-12-23T17:35:59.759Z,21.10
2022-12-23T17:38:30.058Z,21.00
2022-12-23T17:40:59.485Z,21.00
2022-12-23T17:43:28.430Z,21.00
2022-12-23T17:45:58.643Z,21.00
2022-12-23T17:48:31.671Z,21.00
2022-12-23T17:51:00.506Z,21.00
2022-12-23T17:53:28.769Z,21.00
2022-12-23T17:55:57.410Z,21.00
2022-12-23T17:58:25.793Z,20.90
2022-12-23T18:00:54.619Z,21.00
2022-12-23T18:03:26.365Z,20.90
2022-12-23T18:06:01.590Z,21.00
2022-12-23T18:08:30.653Z,20.90
2022-12-23T18:11:00.411Z,20.90
2022-12-23T18:13:29.060Z,21.00
2022-12-23T18:15:57.591Z,21.00
2022-12-23T18:18:37.762Z,20.90
2022-12-23T18:21:10.407Z,21.00
2022-12-23T18:23:39.557Z,20.90
2022-12-23T18:43:33.672Z,20.90
2022-12-23T18:46:02.263Z,21.20
2022-12-23T19:26:16.222Z,20.90
2022-12-23T19:28:44.914Z,21.00
2022-12-23T19:31:15.773Z,20.90
2022-12-23T19:33:46.598Z,21.00
2022-12-23T19:36:18.993Z,20.90
2022-12-23T19:38:47.568Z,20.80
2022-12-23T19:41:16.186Z,20.90
2022-12-23T19:43:47.047Z,20.90
2022-12-23T19:46:17.711Z,21.00
2022-12-23T19:48:52.616Z,21.00
2022-12-23T19:51:22.426Z,21.00
2022-12-23T19:53:53.172Z,21.00
2022-12-23T19:56:22.569Z,21.00
2022-12-23T19:58:51.581Z,21.00
2022-12-23T20:01:23.934Z,20.90
2022-12-23T20:03:54.513Z,21.10
2022-12-23T20:06:27.558Z,20.90
2022-12-23T20:09:00.983Z,20.90
2022-12-23T20:11:30.752Z,20.90
2022-12-23T20:14:01.006Z,21.00
2022-12-23T20:16:30.858Z,20.90
2022-12-23T20:18:59.439Z,20.90
2022-12-23T20:21:29.307Z,21.10
2022-12-23T20:23:57.839Z,20.90
2022-12-23T20:26:27.745Z,20.90
2022-12-23T20:28:56.848Z,20.80
2022-12-23T20:31:28.857Z,20.90
2022-12-23T20:33:57.958Z,20.90
2022-12-23T20:36:32.599Z,20.90
2022-12-23T20:39:02.143Z,20.90
2022-12-23T20:41:31.628Z,20.90
2022-12-23T20:46:49.755Z,21.00
2022-12-23T20:49:18.143Z,21.00
2022-12-23T20:51:47.888Z,20.90
2022-12-23T20:54:16.196Z,20.90
2022-12-23T20:56:44.741Z,21.00
2022-12-23T20:59:13.158Z,20.90
2022-12-23T21:01:42.650Z,20.90
2022-12-23T21:04:15.651Z,20.90
2022-12-23T21:06:45.422Z,21.00
2022-12-23T21:09:16.750Z,20.90
2022-12-23T21:11:47.685Z,21.00
2022-12-23T21:14:17.197Z,20.80
2022-12-23T21:16:45.882Z,20.90
2022-12-23T21:21:47.355Z,20.80
2022-12-23T21:24:18.227Z,21.00
2022-12-23T21:26:55.428Z,20.90
2022-12-23T21:31:54.940Z,20.90
2022-12-23T21:36:52.849Z,20.80
2022-12-23T21:41:52.682Z,20.80
